sensor_id;sensor_type;location;lat;lon;timestamp;temperature;humidity
35796;DHT22;21916;52.428;13.302;2023-09-19T00:00:46;17.70;99.90
35796;DHT22;21916;52.428;13.302;2023-09-19T00:03:15;17.70;99.90
35796;DHT22;21916;52.428;13.302;2023-09-19T00:05:41;17.60;99.90
35796;DHT22;21916;52.428;13.302;2023-09-19T00:08:10;17.70;99.90
35796;DHT22;21916;52.428;13.302;2023-09-19T00:10:36;17.60;99.90
35796;DHT22;21916;52.428;13.302;2023-09-19T00:13:03;17.70;99.90
35796;DHT22;21916;52.428;13.302;2023-09-19T00:15:35;17.70;99.90
35796;DHT22;21916;52.428;13.302;2023-09-19T00:18:01;17.60;99.90
35796;DHT22;21916;52.428;13.302;2023-09-19T00:20:27;17.70;99.90
35796;DHT22;21916;52.428;13.302;2023-09-19T00:22:55;17.60;99.90
35796;DHT22;21916;52.428;13.302;2023-09-19T00:25:21;17.60;99.90
35796;DHT22;21916;52.428;13.302;2023-09-19T00:27:47;17.60;99.90
35796;DHT22;21916;52.428;13.302;2023-09-19T00:30:17;17.60;99.90
35796;DHT22;21916;52.428;13.302;2023-09-19T00:32:47;17.60;99.90
35796;DHT22;21916;52.428;13.302;2023-09-19T00:35:13;17.60;99.90
35796;DHT22;21916;52.428;13.302;2023-09-19T00:37:41;17.60;99.90
35796;DHT22;21916;52.428;13.302;2023-09-19T00:40:08;17.60;99.90
35796;DHT22;21916;52.428;13.302;2023-09-19T00:42:46;17.60;99.90
35796;DHT22;21916;52.428;13.302;2023-09-19T00:45:13;17.60;99.90
35796;DHT22;21916;52.428;13.302;2023-09-19T00:47:41;17.50;99.90
35796;DHT22;21916;52.428;13.302;2023-09-19T00:50:08;17.50;99.90
35796;DHT22;21916;52.428;13.302;2023-09-19T00:52:36;17.50;99.90
35796;DHT22;21916;52.428;13.302;2023-09-19T00:55:10;17.50;99.90
35796;DHT22;21916;52.428;13.302;2023-09-19T00:57:37;17.50;99.90
35796;DHT22;21916;52.428;13.302;2023-09-19T01:00:05;17.50;99.90
35796;DHT22;21916;52.428;13.302;2023-09-19T01:02:32;17.40;99.90
35796;DHT22;21916;52.428;13.302;2023-09-19T01:04:59;17.40;99.90
35796;DHT22;21916;52.428;13.302;2023-09-19T01:07:31;17.40;99.90
35796;DHT22;21916;52.428;13.302;2023-09-19T01:09:58;17.50;99.90
35796;DHT22;21916;52.428;13.302;2023-09-19T01:12:36;17.40;99.90
35796;DHT22;21916;52.428;13.302;2023-09-19T01:17:54;17.40;99.90
35796;DHT22;21916;52.428;13.302;2023-09-19T01:20:31;17.40;99.90
35796;DHT22;21916;52.428;13.302;2023-09-19T01:28:51;17.50;99.90
35796;DHT22;21916;52.428;13.302;2023-09-19T01:31:21;17.50;99.90
35796;DHT22;21916;52.428;13.302;2023-09-19T01:34:00;17.50;99.90
35796;DHT22;21916;52.428;13.302;2023-09-19T01:36:32;17.50;99.90
35796;DHT22;21916;52.428;13.302;2023-09-19T01:39:04;17.50;99.90
35796;DHT22;21916;52.428;13.302;2023-09-19T01:41:58;17.50;99.90
35796;DHT22;21916;52.428;13.302;2023-09-19T01:45:06;17.40;99.90
35796;DHT22;21916;52.428;13.302;2023-09-19T01:47:52;17.40;99.90
35796;DHT22;21916;52.428;13.302;2023-09-19T01:50:34;17.30;99.90
35796;DHT22;21916;52.428;13.302;2023-09-19T01:53:24;17.40;99.90
35796;DHT22;21916;52.428;13.302;2023-09-19T01:55:51;17.30;99.90
35796;DHT22;21916;52.428;13.302;2023-09-19T01:58:27;17.20;99.90
35796;DHT22;21916;52.428;13.302;2023-09-19T02:00:55;17.20;99.90
35796;DHT22;21916;52.428;13.302;2023-09-19T02:03:22;17.10;99.90
35796;DHT22;21916;52.428;13.302;2023-09-19T02:05:52;17.10;99.90
35796;DHT22;21916;52.428;13.302;2023-09-19T02:08:21;17.10;99.90
35796;DHT22;21916;52.428;13.302;2023-09-19T02:10:51;17.10;99.90
35796;DHT22;21916;52.428;13.302;2023-09-19T02:13:19;17.00;99.90
35796;DHT22;21916;52.428;13.302;2023-09-19T02:15:45;17.00;99.90
35796;DHT22;21916;52.428;13.302;2023-09-19T02:18:12;17.00;99.90
35796;DHT22;21916;52.428;13.302;2023-09-19T02:20:44;17.00;99.90
35796;DHT22;21916;52.428;13.302;2023-09-19T02:23:12;16.90;99.90
35796;DHT22;21916;52.428;13.302;2023-09-19T02:25:38;16.90;99.90
35796;DHT22;21916;52.428;13.302;2023-09-19T02:28:06;16.90;99.90
35796;DHT22;21916;52.428;13.302;2023-09-19T02:30:34;16.90;99.90
35796;DHT22;21916;52.428;13.302;2023-09-19T02:33:02;16.90;99.90
35796;DHT22;21916;52.428;13.302;2023-09-19T02:35:28;17.00;99.90
35796;DHT22;21916;52.428;13.302;2023-09-19T02:37:58;17.00;99.90
35796;DHT22;21916;52.428;13.302;2023-09-19T02:40:24;16.90;99.90
35796;DHT22;21916;52.428;13.302;2023-09-19T02:42:55;17.00;99.90
35796;DHT22;21916;52.428;13.302;2023-09-19T02:45:22;16.90;99.90
35796;DHT22;21916;52.428;13.302;2023-09-19T02:47:49;16.90;99.90
35796;DHT22;21916;52.428;13.302;2023-09-19T02:50:15;16.90;99.90
35796;DHT22;21916;52.428;13.302;2023-09-19T02:52:42;16.90;99.90
35796;DHT22;21916;52.428;13.302;2023-09-19T02:55:12;16.90;99.90
35796;DHT22;21916;52.428;13.302;2023-09-19T02:57:40;16.90;99.90
35796;DHT22;21916;52.428;13.302;2023-09-19T03:00:09;16.80;99.90
35796;DHT22;21916;52.428;13.302;2023-09-19T03:02:36;16.90;99.90
35796;DHT22;21916;52.428;13.302;2023-09-19T03:05:04;16.80;99.90
35796;DHT22;21916;52.428;13.302;2023-09-19T03:07:30;16.80;99.90
35796;DHT22;21916;52.428;13.302;2023-09-19T03:09:56;16.80;99.90
35796;DHT22;21916;52.428;13.302;2023-09-19T03:12:22;16.80;99.90
35796;DHT22;21916;52.428;13.302;2023-09-19T03:14:48;16.80;99.90
35796;DHT22;21916;52.428;13.302;2023-09-19T03:17:13;16.90;99.90
35796;DHT22;21916;52.428;13.302;2023-09-19T03:19:40;16.90;99.90
35796;DHT22;21916;52.428;13.302;2023-09-19T03:22:07;16.80;99.90
35796;DHT22;21916;52.428;13.302;2023-09-19T03:24:33;16.80;99.90
35796;DHT22;21916;52.428;13.302;2023-09-19T03:27:02;16.70;99.90
35796;DHT22;21916;52.428;13.302;2023-09-19T03:29:28;16.80;99.90
35796;DHT22;21916;52.428;13.302;2023-09-19T03:31:54;16.80;99.90
35796;DHT22;21916;52.428;13.302;2023-09-19T03:34:20;16.70;99.90
35796;DHT22;21916;52.428;13.302;2023-09-19T03:36:46;16.70;99.90
35796;DHT22;21916;52.428;13.302;2023-09-19T03:39:12;16.70;99.90
35796;DHT22;21916;52.428;13.302;2023-09-19T03:41:40;16.70;99.90
35796;DHT22;21916;52.428;13.302;2023-09-19T03:44:06;16.60;99.90
35796;DHT22;21916;52.428;13.302;2023-09-19T03:46:33;16.60;99.90
35796;DHT22;21916;52.428;13.302;2023-09-19T03:49:01;16.60;99.90
35796;DHT22;21916;52.428;13.302;2023-09-19T03:51:28;16.60;99.90
35796;DHT22;21916;52.428;13.302;2023-09-19T03:53:54;16.60;99.90
35796;DHT22;21916;52.428;13.302;2023-09-19T03:56:20;16.70;99.90
35796;DHT22;21916;52.428;13.302;2023-09-19T03:58:45;16.70;99.90
35796;DHT22;21916;52.428;13.302;2023-09-19T04:01:11;16.60;99.90
35796;DHT22;21916;52.428;13.302;2023-09-19T04:03:38;16.70;99.90
35796;DHT22;21916;52.428;13.302;2023-09-19T04:06:14;16.60;99.90
35796;DHT22;21916;52.428;13.302;2023-09-19T04:08:40;16.60;99.90
35796;DHT22;21916;52.428;13.302;2023-09-19T04:11:06;16.60;99.90
35796;DHT22;21916;52.428;13.302;2023-09-19T04:13:32;16.60;99.90
35796;DHT22;21916;52.428;13.302;2023-09-19T04:15:57;16.50;99.90
35796;DHT22;21916;52.428;13.302;2023-09-19T04:18:23;16.60;99.90
35796;DHT22;21916;52.428;13.302;2023-09-19T04:20:50;16.50;99.90
35796;DHT22;21916;52.428;13.302;2023-09-19T04:23:16;16.40;99.90
35796;DHT22;21916;52.428;13.302;2023-09-19T04:25:43;16.40;99.90
35796;DHT22;21916;52.428;13.302;2023-09-19T04:28:09;16.40;99.90
35796;DHT22;21916;52.428;13.302;2023-09-19T04:30:38;16.40;99.90
35796;DHT22;21916;52.428;13.302;2023-09-19T04:33:07;16.40;99.90
35796;DHT22;21916;52.428;13.302;2023-09-19T04:35:33;16.20;99.90
35796;DHT22;21916;52.428;13.302;2023-09-19T04:37:59;16.20;99.90
35796;DHT22;21916;52.428;13.302;2023-09-19T04:40:26;16.20;99.90
35796;DHT22;21916;52.428;13.302;2023-09-19T04:42:58;16.10;99.90
35796;DHT22;21916;52.428;13.302;2023-09-19T04:45:28;16.10;99.90
35796;DHT22;21916;52.428;13.302;2023-09-19T04:47:54;16.00;99.90
35796;DHT22;21916;52.428;13.302;2023-09-19T04:50:20;16.10;99.90
35796;DHT22;21916;52.428;13.302;2023-09-19T04:52:53;16.10;99.90
35796;DHT22;21916;52.428;13.302;2023-09-19T04:55:20;16.10;99.90
35796;DHT22;21916;52.428;13.302;2023-09-19T04:57:50;16.10;99.90
35796;DHT22;21916;52.428;13.302;2023-09-19T05:00:18;16.10;99.90
35796;DHT22;21916;52.428;13.302;2023-09-19T05:02:50;16.10;99.90
35796;DHT22;21916;52.428;13.302;2023-09-19T05:05:17;16.10;99.90
35796;DHT22;21916;52.428;13.302;2023-09-19T05:07:44;16.10;99.90
35796;DHT22;21916;52.428;13.302;2023-09-19T05:10:11;16.10;99.90
35796;DHT22;21916;52.428;13.302;2023-09-19T05:12:38;16.10;99.90
35796;DHT22;21916;52.428;13.302;2023-09-19T05:15:05;16.10;99.90
35796;DHT22;21916;52.428;13.302;2023-09-19T05:17:33;16.10;99.90
35796;DHT22;21916;52.428;13.302;2023-09-19T05:19:59;16.10;99.90
35796;DHT22;21916;52.428;13.302;2023-09-19T05:22:31;16.20;99.90
35796;DHT22;21916;52.428;13.302;2023-09-19T05:24:58;16.10;99.90
35796;DHT22;21916;52.428;13.302;2023-09-19T05:27:24;16.20;99.90
35796;DHT22;21916;52.428;13.302;2023-09-19T05:29:50;16.20;99.90
35796;DHT22;21916;52.428;13.302;2023-09-19T05:32:19;16.10;99.90
35796;DHT22;21916;52.428;13.302;2023-09-19T05:34:45;16.10;99.90
35796;DHT22;21916;52.428;13.302;2023-09-19T05:37:13;16.10;99.90
35796;DHT22;21916;52.428;13.302;2023-09-19T05:39:39;16.10;99.90
35796;DHT22;21916;52.428;13.302;2023-09-19T05:42:05;16.10;99.90
35796;DHT22;21916;52.428;13.302;2023-09-19T05:44:30;16.10;99.90
35796;DHT22;21916;52.428;13.302;2023-09-19T05:46:57;16.10;99.90
35796;DHT22;21916;52.428;13.302;2023-09-19T05:49:23;16.10;99.90
35796;DHT22;21916;52.428;13.302;2023-09-19T05:51:50;16.10;99.90
35796;DHT22;21916;52.428;13.302;2023-09-19T05:54:19;16.20;99.90
35796;DHT22;21916;52.428;13.302;2023-09-19T05:56:45;16.30;99.90
35796;DHT22;21916;52.428;13.302;2023-09-19T05:59:12;16.20;99.90
35796;DHT22;21916;52.428;13.302;2023-09-19T06:01:42;16.30;99.90
35796;DHT22;21916;52.428;13.302;2023-09-19T06:04:08;16.30;99.90
35796;DHT22;21916;52.428;13.302;2023-09-19T06:06:33;16.40;99.90
35796;DHT22;21916;52.428;13.302;2023-09-19T06:09:06;16.30;99.90
35796;DHT22;21916;52.428;13.302;2023-09-19T06:11:34;16.30;99.90
35796;DHT22;21916;52.428;13.302;2023-09-19T06:14:01;16.30;99.90
35796;DHT22;21916;52.428;13.302;2023-09-19T06:16:28;16.40;99.90
35796;DHT22;21916;52.428;13.302;2023-09-19T06:18:55;16.40;99.90
35796;DHT22;21916;52.428;13.302;2023-09-19T06:21:22;16.40;99.90
35796;DHT22;21916;52.428;13.302;2023-09-19T06:23:48;16.50;99.90
35796;DHT22;21916;52.428;13.302;2023-09-19T06:26:14;16.60;99.90
35796;DHT22;21916;52.428;13.302;2023-09-19T06:28:40;16.60;99.90
35796;DHT22;21916;52.428;13.302;2023-09-19T06:31:06;16.60;99.90
35796;DHT22;21916;52.428;13.302;2023-09-19T06:33:38;16.70;99.90
35796;DHT22;21916;52.428;13.302;2023-09-19T06:36:07;16.80;99.90
35796;DHT22;21916;52.428;13.302;2023-09-19T06:38:33;16.80;99.90
35796;DHT22;21916;52.428;13.302;2023-09-19T06:41:02;16.90;99.90
35796;DHT22;21916;52.428;13.302;2023-09-19T06:43:32;17.10;99.90
35796;DHT22;21916;52.428;13.302;2023-09-19T06:46:00;17.20;99.90
35796;DHT22;21916;52.428;13.302;2023-09-19T06:48:26;17.30;99.90
35796;DHT22;21916;52.428;13.302;2023-09-19T06:50:56;17.30;99.90
35796;DHT22;21916;52.428;13.302;2023-09-19T06:53:24;17.50;99.90
35796;DHT22;21916;52.428;13.302;2023-09-19T06:55:51;17.60;99.90
35796;DHT22;21916;52.428;13.302;2023-09-19T06:58:16;17.80;99.90
35796;DHT22;21916;52.428;13.302;2023-09-19T07:00:42;17.90;99.90
35796;DHT22;21916;52.428;13.302;2023-09-19T07:03:08;18.00;99.90
35796;DHT22;21916;52.428;13.302;2023-09-19T07:05:38;18.20;99.90
35796;DHT22;21916;52.428;13.302;2023-09-19T07:08:09;18.30;99.90
35796;DHT22;21916;52.428;13.302;2023-09-19T07:10:36;18.50;99.90
35796;DHT22;21916;52.428;13.302;2023-09-19T07:13:06;18.60;99.90
35796;DHT22;21916;52.428;13.302;2023-09-19T07:15:34;18.70;99.90
35796;DHT22;21916;52.428;13.302;2023-09-19T07:18:15;18.60;99.90
35796;DHT22;21916;52.428;13.302;2023-09-19T07:20:46;18.70;99.90
35796;DHT22;21916;52.428;13.302;2023-09-19T07:23:18;18.80;99.90
35796;DHT22;21916;52.428;13.302;2023-09-19T07:25:44;18.90;99.90
35796;DHT22;21916;52.428;13.302;2023-09-19T07:28:12;18.70;99.90
35796;DHT22;21916;52.428;13.302;2023-09-19T07:30:40;18.70;99.90
35796;DHT22;21916;52.428;13.302;2023-09-19T07:33:07;18.80;99.90
35796;DHT22;21916;52.428;13.302;2023-09-19T07:35:33;18.80;99.90
35796;DHT22;21916;52.428;13.302;2023-09-19T07:37:59;18.70;99.90
35796;DHT22;21916;52.428;13.302;2023-09-19T07:40:27;18.70;99.90
35796;DHT22;21916;52.428;13.302;2023-09-19T07:42:57;18.90;99.90
35796;DHT22;21916;52.428;13.302;2023-09-19T07:45:28;18.80;99.90
35796;DHT22;21916;52.428;13.302;2023-09-19T07:47:55;18.80;99.90
35796;DHT22;21916;52.428;13.302;2023-09-19T07:50:23;18.70;99.90
35796;DHT22;21916;52.428;13.302;2023-09-19T07:52:50;18.80;99.90
35796;DHT22;21916;52.428;13.302;2023-09-19T07:55:19;18.90;99.90
35796;DHT22;21916;52.428;13.302;2023-09-19T07:57:48;18.90;99.90
35796;DHT22;21916;52.428;13.302;2023-09-19T08:00:15;18.90;99.90
35796;DHT22;21916;52.428;13.302;2023-09-19T08:02:41;19.00;99.90
35796;DHT22;21916;52.428;13.302;2023-09-19T08:05:08;18.90;99.90
35796;DHT22;21916;52.428;13.302;2023-09-19T08:07:38;18.80;99.90
35796;DHT22;21916;52.428;13.302;2023-09-19T08:10:05;18.60;99.90
35796;DHT22;21916;52.428;13.302;2023-09-19T08:12:34;18.60;99.90
35796;DHT22;21916;52.428;13.302;2023-09-19T08:15:02;18.60;99.90
35796;DHT22;21916;52.428;13.302;2023-09-19T08:17:29;18.60;99.90
35796;DHT22;21916;52.428;13.302;2023-09-19T08:20:01;18.60;99.90
35796;DHT22;21916;52.428;13.302;2023-09-19T08:22:28;18.50;99.90
35796;DHT22;21916;52.428;13.302;2023-09-19T08:24:54;18.40;99.90
35796;DHT22;21916;52.428;13.302;2023-09-19T08:27:24;18.30;99.90
35796;DHT22;21916;52.428;13.302;2023-09-19T08:29:53;18.20;99.90
35796;DHT22;21916;52.428;13.302;2023-09-19T08:32:18;18.20;99.90
35796;DHT22;21916;52.428;13.302;2023-09-19T08:34:49;18.30;99.90
35796;DHT22;21916;52.428;13.302;2023-09-19T08:37:16;18.30;99.90
35796;DHT22;21916;52.428;13.302;2023-09-19T08:39:42;18.40;99.90
35796;DHT22;21916;52.428;13.302;2023-09-19T08:42:09;18.50;99.90
35796;DHT22;21916;52.428;13.302;2023-09-19T08:44:37;18.40;99.90
35796;DHT22;21916;52.428;13.302;2023-09-19T08:47:11;18.40;99.90
35796;DHT22;21916;52.428;13.302;2023-09-19T08:49:55;18.50;99.90
35796;DHT22;21916;52.428;13.302;2023-09-19T08:52:32;18.60;99.90
35796;DHT22;21916;52.428;13.302;2023-09-19T08:55:01;18.80;99.90
35796;DHT22;21916;52.428;13.302;2023-09-19T08:57:33;18.80;99.90
35796;DHT22;21916;52.428;13.302;2023-09-19T09:00:02;18.90;99.90
35796;DHT22;21916;52.428;13.302;2023-09-19T09:02:31;18.80;99.90
35796;DHT22;21916;52.428;13.302;2023-09-19T09:04:59;18.80;99.90
35796;DHT22;21916;52.428;13.302;2023-09-19T09:07:25;18.90;99.90
35796;DHT22;21916;52.428;13.302;2023-09-19T09:09:53;18.80;99.90
35796;DHT22;21916;52.428;13.302;2023-09-19T09:12:19;18.90;99.90
35796;DHT22;21916;52.428;13.302;2023-09-19T09:14:46;19.10;99.90
35796;DHT22;21916;52.428;13.302;2023-09-19T09:17:14;18.90;99.90
35796;DHT22;21916;52.428;13.302;2023-09-19T09:19:40;19.00;99.90
35796;DHT22;21916;52.428;13.302;2023-09-19T09:22:08;19.20;99.90
35796;DHT22;21916;52.428;13.302;2023-09-19T09:24:34;19.00;99.90
35796;DHT22;21916;52.428;13.302;2023-09-19T09:27:05;19.30;99.90
35796;DHT22;21916;52.428;13.302;2023-09-19T09:29:50;19.60;99.90
35796;DHT22;21916;52.428;13.302;2023-09-19T09:32:27;19.90;99.90
35796;DHT22;21916;52.428;13.302;2023-09-19T09:35:01;19.90;99.90
35796;DHT22;21916;52.428;13.302;2023-09-19T09:37:28;20.00;99.90
35796;DHT22;21916;52.428;13.302;2023-09-19T09:40:02;19.80;99.90
35796;DHT22;21916;52.428;13.302;2023-09-19T09:42:40;19.30;99.90
35796;DHT22;21916;52.428;13.302;2023-09-19T09:45:20;19.10;99.90
35796;DHT22;21916;52.428;13.302;2023-09-19T09:48:05;19.20;99.90
35796;DHT22;21916;52.428;13.302;2023-09-19T09:50:48;19.20;99.90
35796;DHT22;21916;52.428;13.302;2023-09-19T09:53:23;19.30;99.90
35796;DHT22;21916;52.428;13.302;2023-09-19T09:56:07;19.30;99.90
35796;DHT22;21916;52.428;13.302;2023-09-19T09:58:37;19.50;99.90
35796;DHT22;21916;52.428;13.302;2023-09-19T10:01:06;19.70;99.90
35796;DHT22;21916;52.428;13.302;2023-09-19T10:03:37;19.80;99.70
35796;DHT22;21916;52.428;13.302;2023-09-19T10:06:13;19.70;99.80
35796;DHT22;21916;52.428;13.302;2023-09-19T10:09:06;19.60;99.90
35796;DHT22;21916;52.428;13.302;2023-09-19T10:11:44;19.50;99.90
35796;DHT22;21916;52.428;13.302;2023-09-19T10:14:19;19.40;99.90
35796;DHT22;21916;52.428;13.302;2023-09-19T10:16:49;19.30;99.90
35796;DHT22;21916;52.428;13.302;2023-09-19T10:19:29;19.40;99.90
35796;DHT22;21916;52.428;13.302;2023-09-19T10:21:58;19.50;99.90
35796;DHT22;21916;52.428;13.302;2023-09-19T10:24:26;19.60;99.00
35796;DHT22;21916;52.428;13.302;2023-09-19T10:26:54;19.90;98.90
35796;DHT22;21916;52.428;13.302;2023-09-19T10:29:21;20.30;98.60
35796;DHT22;21916;52.428;13.302;2023-09-19T10:31:47;20.50;97.50
35796;DHT22;21916;52.428;13.302;2023-09-19T10:34:17;20.80;97.40
35796;DHT22;21916;52.428;13.302;2023-09-19T10:36:51;20.90;96.00
35796;DHT22;21916;52.428;13.302;2023-09-19T10:39:17;21.20;96.20
35796;DHT22;21916;52.428;13.302;2023-09-19T10:41:50;21.50;95.30
35796;DHT22;21916;52.428;13.302;2023-09-19T10:44:25;21.60;95.50
35796;DHT22;21916;52.428;13.302;2023-09-19T10:46:52;21.80;95.00
35796;DHT22;21916;52.428;13.302;2023-09-19T10:49:22;21.70;94.70
35796;DHT22;21916;52.428;13.302;2023-09-19T10:51:53;22.50;94.10
35796;DHT22;21916;52.428;13.302;2023-09-19T10:54:23;23.10;92.40
35796;DHT22;21916;52.428;13.302;2023-09-19T10:56:53;22.90;91.60
35796;DHT22;21916;52.428;13.302;2023-09-19T10:59:20;23.00;91.90
35796;DHT22;21916;52.428;13.302;2023-09-19T11:01:50;23.20;91.40
35796;DHT22;21916;52.428;13.302;2023-09-19T11:04:30;23.60;90.50
35796;DHT22;21916;52.428;13.302;2023-09-19T11:07:04;23.80;90.30
35796;DHT22;21916;52.428;13.302;2023-09-19T11:12:12;24.40;88.90
35796;DHT22;21916;52.428;13.302;2023-09-19T11:27:10;24.40;85.50
35796;DHT22;21916;52.428;13.302;2023-09-19T11:29:39;24.40;85.30
35796;DHT22;21916;52.428;13.302;2023-09-19T11:32:05;24.40;85.00
35796;DHT22;21916;52.428;13.302;2023-09-19T11:34:38;24.60;85.10
35796;DHT22;21916;52.428;13.302;2023-09-19T11:39:38;26.00;82.30
35796;DHT22;21916;52.428;13.302;2023-09-19T11:42:40;25.90;81.90
35796;DHT22;21916;52.428;13.302;2023-09-19T11:45:06;24.40;83.60
35796;DHT22;21916;52.428;13.302;2023-09-19T11:47:32;23.50;84.20
35796;DHT22;21916;52.428;13.302;2023-09-19T11:50:01;23.30;85.20
35796;DHT22;21916;52.428;13.302;2023-09-19T11:52:28;23.60;85.20
35796;DHT22;21916;52.428;13.302;2023-09-19T11:55:00;23.70;84.50
35796;DHT22;21916;52.428;13.302;2023-09-19T11:57:30;24.10;84.30
35796;DHT22;21916;52.428;13.302;2023-09-19T11:59:57;23.30;83.80
35796;DHT22;21916;52.428;13.302;2023-09-19T12:02:39;22.70;85.60
35796;DHT22;21916;52.428;13.302;2023-09-19T12:05:07;22.70;86.00
35796;DHT22;21916;52.428;13.302;2023-09-19T12:07:43;22.90;86.00
35796;DHT22;21916;52.428;13.302;2023-09-19T12:10:11;23.30;85.20
35796;DHT22;21916;52.428;13.302;2023-09-19T12:12:39;23.40;85.80
35796;DHT22;21916;52.428;13.302;2023-09-19T12:15:08;23.30;84.30
35796;DHT22;21916;52.428;13.302;2023-09-19T12:17:40;23.50;84.40
35796;DHT22;21916;52.428;13.302;2023-09-19T12:20:08;24.00;83.70
35796;DHT22;21916;52.428;13.302;2023-09-19T12:22:45;24.60;82.10
35796;DHT22;21916;52.428;13.302;2023-09-19T12:25:12;24.30;82.30
35796;DHT22;21916;52.428;13.302;2023-09-19T12:27:48;24.60;81.70
35796;DHT22;21916;52.428;13.302;2023-09-19T12:30:18;24.50;81.70
35796;DHT22;21916;52.428;13.302;2023-09-19T12:32:45;24.40;80.90
35796;DHT22;21916;52.428;13.302;2023-09-19T12:35:27;24.50;81.00
35796;DHT22;21916;52.428;13.302;2023-09-19T12:37:54;24.70;80.20
35796;DHT22;21916;52.428;13.302;2023-09-19T12:40:21;25.20;80.40
35796;DHT22;21916;52.428;13.302;2023-09-19T12:42:48;25.10;79.00
35796;DHT22;21916;52.428;13.302;2023-09-19T12:45:15;25.70;79.30
35796;DHT22;21916;52.428;13.302;2023-09-19T12:48:17;25.10;79.10
35796;DHT22;21916;52.428;13.302;2023-09-19T12:51:08;24.60;79.90
35796;DHT22;21916;52.428;13.302;2023-09-19T12:53:40;24.70;79.20
35796;DHT22;21916;52.428;13.302;2023-09-19T12:56:09;24.60;79.70
35796;DHT22;21916;52.428;13.302;2023-09-19T12:58:54;24.80;79.90
35796;DHT22;21916;52.428;13.302;2023-09-19T13:01:21;24.40;79.60
35796;DHT22;21916;52.428;13.302;2023-09-19T13:04:19;24.10;80.20
35796;DHT22;21916;52.428;13.302;2023-09-19T13:06:46;24.00;80.60
35796;DHT22;21916;52.428;13.302;2023-09-19T13:09:15;23.80;80.90
35796;DHT22;21916;52.428;13.302;2023-09-19T13:11:42;24.10;81.20
35796;DHT22;21916;52.428;13.302;2023-09-19T13:14:26;24.40;81.00
35796;DHT22;21916;52.428;13.302;2023-09-19T13:17:05;24.80;78.80
35796;DHT22;21916;52.428;13.302;2023-09-19T13:19:51;24.50;79.70
35796;DHT22;21916;52.428;13.302;2023-09-19T13:22:42;24.10;80.50
35796;DHT22;21916;52.428;13.302;2023-09-19T13:25:13;23.90;80.70
35796;DHT22;21916;52.428;13.302;2023-09-19T13:27:45;23.80;81.10
35796;DHT22;21916;52.428;13.302;2023-09-19T13:30:12;24.20;81.20
35796;DHT22;21916;52.428;13.302;2023-09-19T13:32:38;23.80;80.80
35796;DHT22;21916;52.428;13.302;2023-09-19T13:35:06;23.90;81.40
35796;DHT22;21916;52.428;13.302;2023-09-19T13:37:35;23.80;81.20
35796;DHT22;21916;52.428;13.302;2023-09-19T13:40:10;23.30;82.30
35796;DHT22;21916;52.428;13.302;2023-09-19T13:42:37;23.20;83.10
35796;DHT22;21916;52.428;13.302;2023-09-19T13:45:03;23.30;83.10
35796;DHT22;21916;52.428;13.302;2023-09-19T13:47:37;23.40;83.00
35796;DHT22;21916;52.428;13.302;2023-09-19T13:50:04;23.60;82.80
35796;DHT22;21916;52.428;13.302;2023-09-19T13:52:31;23.40;82.30
35796;DHT22;21916;52.428;13.302;2023-09-19T13:54:57;23.00;83.10
35796;DHT22;21916;52.428;13.302;2023-09-19T13:57:24;22.90;83.30
35796;DHT22;21916;52.428;13.302;2023-09-19T13:59:50;22.90;83.60
35796;DHT22;21916;52.428;13.302;2023-09-19T14:02:17;23.10;83.00
35796;DHT22;21916;52.428;13.302;2023-09-19T14:04:44;23.50;83.20
35796;DHT22;21916;52.428;13.302;2023-09-19T14:07:10;23.70;82.30
35796;DHT22;21916;52.428;13.302;2023-09-19T14:09:36;23.30;82.00
35796;DHT22;21916;52.428;13.302;2023-09-19T14:12:03;23.10;82.50
35796;DHT22;21916;52.428;13.302;2023-09-19T14:14:32;22.90;82.70
35796;DHT22;21916;52.428;13.302;2023-09-19T14:16:58;22.80;83.30
35796;DHT22;21916;52.428;13.302;2023-09-19T14:19:29;23.20;83.30
35796;DHT22;21916;52.428;13.302;2023-09-19T14:21:55;23.30;83.00
35796;DHT22;21916;52.428;13.302;2023-09-19T14:24:21;23.40;82.60
35796;DHT22;21916;52.428;13.302;2023-09-19T14:26:47;23.60;82.00
35796;DHT22;21916;52.428;13.302;2023-09-19T14:29:15;23.40;82.50
35796;DHT22;21916;52.428;13.302;2023-09-19T14:31:42;23.40;83.00
35796;DHT22;21916;52.428;13.302;2023-09-19T14:34:08;22.90;82.90
35796;DHT22;21916;52.428;13.302;2023-09-19T14:36:37;22.80;83.30
35796;DHT22;21916;52.428;13.302;2023-09-19T14:39:06;22.70;83.50
35796;DHT22;21916;52.428;13.302;2023-09-19T14:41:33;22.60;83.60
35796;DHT22;21916;52.428;13.302;2023-09-19T14:44:01;22.40;83.20
35796;DHT22;21916;52.428;13.302;2023-09-19T14:46:27;22.10;84.00
35796;DHT22;21916;52.428;13.302;2023-09-19T14:48:54;21.80;84.30
35796;DHT22;21916;52.428;13.302;2023-09-19T14:51:25;21.90;84.40
35796;DHT22;21916;52.428;13.302;2023-09-19T14:53:51;21.90;84.50
35796;DHT22;21916;52.428;13.302;2023-09-19T14:56:17;21.90;84.50
35796;DHT22;21916;52.428;13.302;2023-09-19T14:58:45;21.90;84.60
35796;DHT22;21916;52.428;13.302;2023-09-19T15:01:13;22.00;84.50
35796;DHT22;21916;52.428;13.302;2023-09-19T15:03:41;22.00;84.60
35796;DHT22;21916;52.428;13.302;2023-09-19T15:06:11;22.20;83.70
35796;DHT22;21916;52.428;13.302;2023-09-19T15:08:40;22.40;84.20
35796;DHT22;21916;52.428;13.302;2023-09-19T15:11:11;22.50;83.40
35796;DHT22;21916;52.428;13.302;2023-09-19T15:13:38;22.60;83.70
35796;DHT22;21916;52.428;13.302;2023-09-19T15:16:06;22.60;83.50
35796;DHT22;21916;52.428;13.302;2023-09-19T15:18:35;22.40;84.20
35796;DHT22;21916;52.428;13.302;2023-09-19T15:21:07;22.50;84.40
35796;DHT22;21916;52.428;13.302;2023-09-19T15:23:34;22.60;83.50
35796;DHT22;21916;52.428;13.302;2023-09-19T15:26:00;22.50;84.10
35796;DHT22;21916;52.428;13.302;2023-09-19T15:28:27;22.80;83.90
35796;DHT22;21916;52.428;13.302;2023-09-19T15:31:09;22.90;83.70
35796;DHT22;21916;52.428;13.302;2023-09-19T15:33:36;23.00;84.20
35796;DHT22;21916;52.428;13.302;2023-09-19T15:36:06;23.10;83.80
35796;DHT22;21916;52.428;13.302;2023-09-19T15:38:57;23.30;83.30
35796;DHT22;21916;52.428;13.302;2023-09-19T15:41:28;23.50;83.30
35796;DHT22;21916;52.428;13.302;2023-09-19T15:43:54;23.80;82.70
35796;DHT22;21916;52.428;13.302;2023-09-19T15:46:20;23.80;82.90
35796;DHT22;21916;52.428;13.302;2023-09-19T15:48:46;24.10;82.80
35796;DHT22;21916;52.428;13.302;2023-09-19T15:51:13;24.50;82.00
35796;DHT22;21916;52.428;13.302;2023-09-19T15:53:47;24.70;81.40
35796;DHT22;21916;52.428;13.302;2023-09-19T15:56:14;24.80;81.10